createdAt,value
2022-07-30T09:56:31.744Z,99.90
2022-07-30T10:01:49.426Z,99.90
2022-07-30T10:07:25.617Z,96.90
2022-07-30T10:10:01.601Z,99.90
2022-07-30T10:12:34.341Z,97.00
2022-07-30T10:15:06.220Z,96.60
2022-07-30T10:20:24.859Z,96.50
2022-07-30T10:26:20.012Z,97.40
2022-07-30T10:29:18.313Z,97.40
2022-07-30T10:31:54.267Z,98.40
2022-07-30T10:34:23.543Z,99.20
2022-07-30T10:36:58.766Z,95.00
2022-07-30T10:39:34.721Z,98.20
2022-07-30T10:42:14.573Z,94.80
2022-07-30T10:45:03.145Z,94.40
2022-07-30T10:47:40.460Z,94.30
2022-07-30T10:50:16.147Z,94.10
2022-07-30T10:52:46.110Z,94.10
2022-07-30T10:55:16.015Z,97.80
2022-07-30T10:58:03.091Z,97.70
2022-07-30T11:00:35.789Z,93.70
2022-07-30T11:03:22.201Z,93.30
2022-07-30T11:05:52.594Z,94.00
2022-07-30T11:08:36.267Z,94.20
2022-07-30T11:11:19.521Z,97.20
2022-07-30T14:09:12.318Z,77.00
2022-07-30T14:11:40.632Z,76.50
2022-07-30T14:14:10.335Z,78.10
2022-07-30T14:16:46.076Z,82.70
2022-07-30T14:19:23.116Z,83.90
2022-07-30T14:21:53.732Z,77.70
2022-07-30T14:24:24.168Z,77.40
2022-07-30T14:26:58.835Z,76.20
2022-07-30T14:29:27.910Z,76.60
2022-07-30T14:31:56.314Z,75.90
2022-07-30T14:34:24.610Z,76.40
2022-07-30T14:36:52.875Z,78.40
2022-07-30T14:39:22.590Z,76.70
2022-07-30T14:41:52.409Z,74.80
2022-07-30T14:44:24.475Z,76.00
2022-07-30T14:46:53.176Z,80.20
2022-07-30T14:49:22.658Z,81.10
2022-07-30T14:51:52.168Z,85.70
2022-07-30T14:54:20.488Z,82.70
2022-07-30T14:56:53.621Z,84.30
2022-07-30T14:59:24.686Z,79.80
2022-07-30T15:01:53.016Z,77.90
2022-07-30T15:04:25.266Z,80.20
2022-07-30T15:07:05.194Z,77.70
2022-07-30T15:09:35.301Z,76.40
2022-07-30T15:12:23.786Z,79.30
2022-07-30T15:14:53.816Z,78.90
2022-07-30T15:17:22.344Z,83.50
2022-07-30T15:19:51.578Z,86.30
2022-07-30T15:22:20.810Z,80.30
2022-07-30T15:24:49.837Z,82.20
2022-07-30T15:27:22.399Z,85.50
2022-07-30T15:29:56.257Z,82.50
2022-07-30T15:32:24.902Z,89.00
2022-07-30T15:34:53.357Z,82.50
2022-07-30T15:37:21.646Z,79.20
2022-07-30T15:39:50.147Z,77.20
2022-07-30T15:42:19.989Z,78.30
2022-07-30T15:44:49.186Z,82.80
2022-07-30T15:47:17.845Z,84.70
2022-07-30T15:49:46.298Z,85.00
2022-07-30T15:52:14.826Z,87.70
2022-07-30T15:54:43.379Z,87.00
2022-07-30T15:57:12.186Z,81.10
2022-07-30T15:59:41.906Z,80.60
2022-07-30T16:02:10.602Z,90.70
2022-07-30T16:04:38.872Z,81.00
2022-07-30T16:07:09.863Z,89.90
2022-07-30T16:09:38.314Z,91.20
2022-07-30T16:12:21.393Z,77.50
2022-07-30T16:14:51.217Z,83.40
2022-07-30T16:17:19.766Z,80.90
2022-07-30T16:19:48.044Z,83.80
2022-07-30T16:29:50.847Z,82.00
2022-07-30T16:34:47.571Z,88.90
2022-07-30T16:37:16.171Z,88.40
2022-07-30T16:47:13.829Z,75.60
2022-07-30T16:57:10.617Z,90.80
2022-07-30T17:02:13.651Z,83.80
2022-07-30T17:12:11.838Z,82.90
2022-07-30T17:19:44.655Z,91.80
2022-07-30T17:22:13.179Z,83.90
2022-07-30T17:24:41.536Z,82.70
2022-07-30T17:27:09.817Z,93.20
2022-07-30T17:29:48.407Z,87.50
2022-07-30T17:32:19.241Z,87.90
2022-07-30T17:34:50.045Z,89.00
2022-07-30T17:37:18.601Z,90.10
2022-07-30T17:40:19.665Z,90.00
2022-07-30T17:42:35.668Z,90.80
2022-07-30T17:45:05.269Z,91.20
2022-07-30T17:47:33.840Z,91.70
2022-07-30T17:50:04.409Z,91.90
2022-07-30T17:52:32.799Z,92.20
2022-07-30T17:55:01.019Z,96.70
2022-07-30T17:57:29.402Z,97.20
2022-07-30T17:59:58.098Z,93.00
2022-07-30T18:02:28.910Z,93.30
2022-07-30T18:04:57.724Z,93.00
2022-07-30T18:07:28.103Z,93.40
2022-07-30T18:09:56.481Z,93.30
2022-07-30T18:12:24.773Z,92.40
2022-07-30T18:14:53.108Z,92.60
2022-07-30T18:17:21.422Z,92.80
2022-07-30T18:19:49.914Z,92.80
2022-07-30T18:22:29.171Z,92.70
2022-07-30T18:25:00.448Z,93.00
2022-07-30T18:27:29.843Z,93.10
2022-07-30T18:29:58.510Z,93.00
2022-07-30T18:32:26.785Z,92.40
2022-07-30T18:34:55.040Z,92.60
2022-07-30T18:37:23.363Z,92.80
2022-07-30T18:39:51.694Z,93.30
2022-07-30T18:42:21.343Z,93.80
2022-07-30T18:44:52.139Z,94.80
2022-07-30T18:47:20.386Z,96.00
2022-07-30T18:49:50.228Z,96.10
2022-07-30T18:52:18.833Z,96.60
2022-07-30T18:54:47.113Z,97.00
2022-07-30T18:57:15.668Z,97.10
2022-07-30T18:59:45.331Z,99.00
2022-07-30T19:02:13.632Z,96.90
2022-07-30T19:04:41.842Z,97.70
2022-07-30T19:07:10.140Z,98.90
2022-07-30T19:09:38.436Z,99.90
2022-07-30T19:12:07.283Z,99.90
2022-07-30T19:14:35.737Z,99.90
2022-07-30T19:17:13.634Z,99.90
2022-07-30T19:19:42.578Z,99.90
2022-07-30T19:22:10.939Z,99.90
2022-07-30T19:24:39.368Z,99.90
2022-07-30T19:27:12.270Z,99.90
2022-07-30T19:29:43.489Z,99.90
2022-07-30T19:32:13.497Z,99.90
